createdAt,value
2018-07-12T00:00:43.029Z,19.43
2018-07-12T00:05:46.061Z,24.17
2018-07-12T00:10:49.179Z,21.00
2018-07-12T00:15:52.241Z,19.87
2018-07-12T00:20:55.063Z,21.80
2018-07-12T00:25:58.105Z,21.73
2018-07-12T00:31:00.940Z,20.47
2018-07-12T00:36:04.062Z,20.07
2018-07-12T00:41:07.207Z,16.97
2018-07-12T00:46:10.765Z,21.67
2018-07-12T00:51:14.080Z,24.93
2018-07-12T00:56:17.273Z,20.03
2018-07-12T01:01:20.106Z,24.67
2018-07-12T01:06:22.994Z,25.13
2018-07-12T01:11:25.840Z,21.00
2018-07-12T01:16:28.723Z,24.33
2018-07-12T01:21:31.629Z,18.57
2018-07-12T01:26:34.574Z,24.37
2018-07-12T01:31:39.758Z,22.83
2018-07-12T01:36:42.887Z,23.23
2018-07-12T01:41:45.851Z,26.40
2018-07-12T01:46:48.879Z,20.80
2018-07-12T01:51:52.048Z,22.83
2018-07-12T01:56:54.959Z,21.90
2018-07-12T02:01:57.823Z,21.70
2018-07-12T02:07:00.735Z,25.13
2018-07-12T02:12:03.714Z,25.90
2018-07-12T02:17:06.593Z,22.50
2018-07-12T02:22:09.675Z,22.30
2018-07-12T02:27:12.699Z,20.13
2018-07-12T02:32:16.143Z,28.03
2018-07-12T02:37:19.320Z,25.77
2018-07-12T02:42:22.260Z,23.70
2018-07-12T02:47:25.091Z,20.47
2018-07-12T02:52:28.220Z,23.83
2018-07-12T02:57:31.040Z,24.10
2018-07-12T03:02:33.866Z,25.13
2018-07-12T03:07:36.746Z,20.87
2018-07-12T03:12:40.139Z,26.87
2018-07-12T03:17:43.342Z,22.83
2018-07-12T03:22:46.347Z,18.83
2018-07-12T03:27:49.203Z,25.40
2018-07-12T03:32:52.039Z,24.83
2018-07-12T03:37:54.924Z,23.83
2018-07-12T03:42:57.788Z,21.40
2018-07-12T03:48:00.664Z,24.60
2018-07-12T03:53:03.513Z,20.77
2018-07-12T03:58:06.550Z,25.77
2018-07-12T04:03:10.464Z,22.07
2018-07-12T04:08:13.620Z,20.37
2018-07-12T04:13:16.726Z,22.07
2018-07-12T04:18:19.743Z,20.03
2018-07-12T04:23:22.669Z,17.07
2018-07-12T04:28:25.500Z,17.20
2018-07-12T04:33:28.347Z,19.00
2018-07-12T04:38:31.265Z,17.77
2018-07-12T04:43:34.127Z,14.50
2018-07-12T04:48:36.994Z,16.27
2018-07-12T04:53:39.951Z,17.27
2018-07-12T04:58:43.147Z,18.77
2018-07-12T05:03:46.056Z,15.93
2018-07-12T05:08:48.982Z,15.07
2018-07-12T05:13:52.714Z,15.30
2018-07-12T05:18:55.564Z,12.37
2018-07-12T05:23:58.524Z,15.10
2018-07-12T05:29:01.434Z,13.77
2018-07-12T05:34:04.296Z,12.67
2018-07-12T05:39:08.447Z,15.20
2018-07-12T05:44:12.654Z,11.50
2018-07-12T05:49:16.864Z,18.33
2018-07-12T05:54:21.337Z,17.87
2018-07-12T05:59:25.474Z,14.47
2018-07-12T06:04:29.617Z,14.83
2018-07-12T06:09:33.827Z,11.67
2018-07-12T06:14:38.228Z,13.83
2018-07-12T06:19:42.734Z,9.70
2018-07-12T06:24:47.974Z,11.97
2018-07-12T06:29:52.156Z,10.17
2018-07-12T06:34:56.418Z,11.33
2018-07-12T06:40:00.529Z,11.43
2018-07-12T06:45:05.644Z,13.90
2018-07-12T06:50:10.195Z,11.87
2018-07-12T06:55:14.557Z,12.43
2018-07-12T07:00:19.006Z,9.83
2018-07-12T07:05:23.387Z,12.63
2018-07-12T07:10:27.763Z,13.77
2018-07-12T07:15:32.318Z,10.20
2018-07-12T07:20:36.480Z,12.37
2018-07-12T07:25:40.755Z,16.03
2018-07-12T07:30:45.248Z,12.57
2018-07-12T07:35:50.091Z,10.67
2018-07-12T07:40:54.220Z,11.63
2018-07-12T07:45:58.470Z,12.63
2018-07-12T07:51:02.688Z,10.63
2018-07-12T07:56:07.129Z,8.93
2018-07-12T08:01:12.041Z,10.37
2018-07-12T08:06:16.382Z,11.90
2018-07-12T08:11:20.902Z,10.80
2018-07-12T08:16:25.065Z,10.20
2018-07-12T08:21:29.225Z,8.07
2018-07-12T08:26:33.133Z,8.80
2018-07-12T08:31:37.257Z,10.87
2018-07-12T08:36:41.775Z,12.90
2018-07-12T08:41:46.124Z,10.87
2018-07-12T08:46:51.171Z,9.23
2018-07-12T08:51:55.534Z,13.53
2018-07-12T08:56:59.651Z,10.37
2018-07-12T09:02:03.775Z,8.73
2018-07-12T09:07:08.011Z,10.73
2018-07-12T09:12:12.478Z,7.80
2018-07-12T09:17:16.960Z,5.83
2018-07-12T09:22:21.116Z,5.43
2018-07-12T09:27:25.249Z,8.03
2018-07-12T09:32:29.362Z,8.57
2018-07-12T09:37:33.708Z,8.23
2018-07-12T09:42:38.100Z,6.97
2018-07-12T09:47:43.426Z,6.97
2018-07-12T09:52:47.855Z,10.67
2018-07-12T09:58:03.454Z,7.40
2018-07-12T10:03:12.893Z,9.23
2018-07-12T10:08:22.582Z,9.37
2018-07-12T10:13:31.040Z,8.17
2018-07-12T10:18:35.207Z,7.90
2018-07-12T10:23:40.049Z,8.47
2018-07-12T10:28:44.808Z,36.73
2018-07-12T10:33:49.205Z,10.03
2018-07-12T10:38:53.032Z,8.33
2018-07-12T10:43:57.159Z,8.27
2018-07-12T10:49:01.405Z,7.13
2018-07-12T10:54:05.518Z,8.57
2018-07-12T10:59:09.648Z,12.47
2018-07-12T11:04:13.789Z,14.17
2018-07-12T11:09:18.062Z,7.47
2018-07-12T11:14:22.171Z,6.40
2018-07-12T11:25:01.311Z,7.23
2018-07-12T11:30:05.455Z,8.03
2018-07-12T11:35:09.560Z,7.50
2018-07-12T11:40:13.702Z,7.43
2018-07-12T11:45:17.821Z,6.87
2018-07-12T11:50:22.785Z,6.07
2018-07-12T11:55:26.876Z,6.43
2018-07-12T12:00:30.964Z,6.33
2018-07-12T12:05:35.092Z,17.37
2018-07-12T12:10:39.207Z,6.13
2018-07-12T12:15:43.305Z,5.53
2018-07-12T12:20:47.533Z,5.67
2018-07-12T12:25:51.596Z,22.47
2018-07-12T12:30:55.628Z,5.53
2018-07-12T12:35:59.687Z,8.53
2018-07-12T12:41:03.867Z,6.67
2018-07-12T12:46:07.937Z,7.87
2018-07-12T12:51:12.117Z,7.87
2018-07-12T12:56:16.661Z,7.80
2018-07-12T13:01:20.810Z,8.37
2018-07-12T13:06:24.903Z,10.43
2018-07-12T13:11:29.187Z,7.03
2018-07-12T13:16:33.268Z,6.33
2018-07-12T13:21:37.360Z,5.20
2018-07-12T13:26:41.511Z,8.70
2018-07-12T13:31:45.619Z,8.47
2018-07-12T13:36:49.822Z,6.87
2018-07-12T13:41:54.217Z,8.93
2018-07-12T13:46:58.209Z,7.17
2018-07-12T13:52:02.287Z,9.17
2018-07-12T13:57:06.382Z,6.33
2018-07-12T14:02:10.428Z,7.23
2018-07-12T14:07:14.602Z,8.13
2018-07-12T14:12:18.678Z,9.17
2018-07-12T14:17:22.851Z,6.77
2018-07-12T14:22:26.924Z,6.70
2018-07-12T14:27:31.159Z,6.90
2018-07-12T14:32:35.264Z,6.83
2018-07-12T14:37:39.997Z,7.83
2018-07-12T14:42:44.189Z,8.97
2018-07-12T14:52:58.756Z,8.03
2018-07-12T14:58:02.872Z,6.57
2018-07-12T15:03:06.939Z,6.43
2018-07-12T15:08:11.013Z,8.53
2018-07-12T15:13:15.100Z,9.27
2018-07-12T15:18:19.219Z,5.63
2018-07-12T15:23:23.465Z,8.80
2018-07-12T15:28:28.391Z,6.37
2018-07-12T15:33:32.547Z,6.27
2018-07-12T15:38:36.707Z,9.03
2018-07-12T15:43:40.784Z,8.60
2018-07-12T15:48:44.953Z,7.70
2018-07-12T15:53:48.987Z,7.87
2018-07-12T15:58:53.144Z,7.50
2018-07-12T16:03:57.184Z,9.70
2018-07-12T16:14:47.698Z,5.87
2018-07-12T16:19:51.875Z,7.20
2018-07-12T16:24:55.974Z,6.43
2018-07-12T16:30:00.163Z,9.40
2018-07-12T16:35:04.198Z,6.60
2018-07-12T16:40:08.424Z,7.27
2018-07-12T16:45:12.547Z,9.70
2018-07-12T16:50:16.767Z,6.10
2018-07-12T16:55:20.866Z,5.00
2018-07-12T17:00:25.224Z,6.37
2018-07-12T17:05:29.324Z,6.57
2018-07-12T17:10:34.201Z,6.77
2018-07-12T17:15:38.352Z,8.83
2018-07-12T17:20:43.357Z,6.90
2018-07-12T17:25:47.806Z,7.90
2018-07-12T17:35:17.313Z,8.93
2018-07-12T17:40:21.439Z,7.80
2018-07-12T17:45:25.405Z,7.70
2018-07-12T17:50:29.355Z,6.67
2018-07-12T17:55:39.564Z,9.60
2018-07-12T18:00:43.900Z,9.17
2018-07-12T18:05:48.102Z,8.83
2018-07-12T18:10:52.250Z,5.93
2018-07-12T18:15:56.385Z,6.97
2018-07-12T18:21:00.512Z,7.67
2018-07-12T18:26:04.996Z,5.33
2018-07-12T18:31:09.392Z,13.43
2018-07-12T18:36:13.577Z,10.57
2018-07-12T18:41:17.785Z,7.97
2018-07-12T18:46:22.259Z,10.77
2018-07-12T18:51:27.242Z,8.47
2018-07-12T18:59:28.963Z,7.37
2018-07-12T19:04:33.464Z,9.90
2018-07-12T19:09:38.692Z,9.87
2018-07-12T19:20:18.400Z,9.23
2018-07-12T19:25:22.799Z,10.80
2018-07-12T19:30:27.021Z,12.10
2018-07-12T19:35:31.086Z,9.20
2018-07-12T19:40:35.212Z,9.57
2018-07-12T19:45:39.271Z,14.20
2018-07-12T19:50:43.443Z,9.33
2018-07-12T19:55:54.080Z,6.43
2018-07-12T20:00:58.344Z,9.53
2018-07-12T20:06:02.572Z,11.83
2018-07-12T20:11:06.815Z,13.07
2018-07-12T20:16:10.934Z,12.30
2018-07-12T20:21:15.124Z,13.63
2018-07-12T20:26:19.901Z,12.13
2018-07-12T20:31:23.794Z,10.63
2018-07-12T20:36:28.012Z,10.83
2018-07-12T20:41:32.120Z,9.43
2018-07-12T20:46:36.204Z,11.73
2018-07-12T20:51:40.280Z,15.67
2018-07-12T20:56:44.385Z,9.23
2018-07-12T21:01:48.590Z,15.90
2018-07-12T21:07:11.027Z,10.57
2018-07-12T21:12:15.824Z,10.67
2018-07-12T21:17:20.056Z,8.03
2018-07-12T21:22:24.130Z,12.90
2018-07-12T21:27:28.206Z,10.40
2018-07-12T21:32:32.319Z,9.40
2018-07-12T21:37:36.358Z,8.37
2018-07-12T21:42:41.153Z,14.77
2018-07-12T21:47:45.276Z,14.87
2018-07-12T21:52:49.422Z,14.20
2018-07-12T21:57:53.472Z,10.23
2018-07-12T22:02:57.874Z,8.63
2018-07-12T22:08:13.404Z,13.57
2018-07-12T22:13:17.866Z,10.17
2018-07-12T22:18:21.805Z,9.63
2018-07-12T22:23:26.017Z,15.20
2018-07-12T22:28:30.208Z,14.10
2018-07-12T22:33:34.443Z,11.10
2018-07-12T22:38:38.581Z,13.67
2018-07-12T22:43:42.752Z,10.67
2018-07-12T22:48:46.803Z,11.20
2018-07-12T22:53:50.846Z,10.40
2018-07-12T22:58:55.057Z,10.73
2018-07-12T23:03:59.185Z,8.87
2018-07-12T23:09:04.027Z,12.43
2018-07-12T23:14:08.089Z,10.43
2018-07-12T23:19:12.220Z,10.83
2018-07-12T23:24:16.524Z,7.23
2018-07-12T23:29:20.806Z,12.40
2018-07-12T23:34:25.000Z,16.47
2018-07-12T23:39:29.036Z,11.70
2018-07-12T23:44:33.392Z,13.20
2018-07-12T23:49:38.640Z,13.07
2018-07-12T23:54:42.685Z,12.70
2018-07-12T23:59:47.112Z,12.40
